Time;durP1;ratioP1;P1;durP2;ratioP2;P2;SDS_P1;SDS_P2;PMS_P1;PMS_P2;Temp;Humidity;BMP_temperature;BMP_pressure;BME280_temperature;BME280_humidity;BME280_pressure;Samples;Min_cycle;Max_cycle;Signal;HPM_P1;HPM_P2
2021/11/08 00:01:58;;;;;;;10.77;2.90;;;;;;;;;;5015529;28;20033;-84
2021/11/08 00:04:23;;;;;;;11.15;3.03;;;;;;;;;;5010185;28;20060;-85
2021/11/08 00:06:51;;;;;;;12.20;2.70;;;;;;;;;;5035651;28;20504;-83
2021/11/08 00:09:17;;;;;;;8.93;2.72;;;;;;;;;;5009495;28;20026;-84
2021/11/08 00:11:43;;;;;;;9.90;3.15;;;;;;;;;;5030364;28;20053;-85
2021/11/08 00:14:12;;;;;;;8.20;2.70;;;;;;;;;;5012766;28;20115;-85
2021/11/08 00:17:05;;;;;;;11.25;2.95;;;;;;;;;;5016641;28;20025;-83
2021/11/08 00:19:48;;;;;;;10.88;2.60;;;;;;;;;;5013865;28;20056;-84
2021/11/08 00:22:14;;;;;;;8.32;2.78;;;;;;;;;;5005826;28;20075;-85
2021/11/08 00:24:42;;;;;;;9.02;2.60;;;;;;;;;;5007914;28;20033;-85
2021/11/08 00:27:08;;;;;;;8.40;2.53;;;;;;;;;;5009462;28;20400;-84
2021/11/08 00:29:34;;;;;;;9.65;2.67;;;;;;;;;;5014977;28;20036;-84
2021/11/08 00:32:01;;;;;;;10.25;2.92;;;;;;;;;;5010315;28;20029;-85
2021/11/08 00:34:27;;;;;;;8.27;2.75;;;;;;;;;;5017099;28;20033;-83
2021/11/08 00:36:53;;;;;;;9.40;2.30;;;;;;;;;;5030528;28;20059;-85
2021/11/08 00:39:19;;;;;;;10.80;2.92;;;;;;;;;;5013869;28;20116;-85
2021/11/08 00:41:45;;;;;;;10.23;3.10;;;;;;;;;;5016937;28;20029;-83
2021/11/08 00:44:11;;;;;;;10.70;2.72;;;;;;;;;;5031418;28;20495;-84
2021/11/08 00:46:37;;;;;;;8.45;2.95;;;;;;;;;;5015295;28;20033;-83
2021/11/08 00:49:03;;;;;;;9.38;2.60;;;;;;;;;;5022294;28;20480;-84
2021/11/08 00:51:28;;;;;;;9.85;2.80;;;;;;;;;;5016824;28;20068;-85
2021/11/08 00:53:53;;;;;;;11.10;2.70;;;;;;;;;;5014656;28;20392;-83
2021/11/08 00:56:22;;;;;;;9.70;2.35;;;;;;;;;;5031975;28;20022;-85
2021/11/08 00:58:48;;;;;;;9.18;2.67;;;;;;;;;;5030356;28;20108;-85
2021/11/08 01:01:20;;;;;;;8.57;2.78;;;;;;;;;;5005710;28;20029;-84
2021/11/08 01:03:47;;;;;;;10.10;2.40;;;;;;;;;;5011145;28;20117;-85
2021/11/08 01:06:14;;;;;;;8.88;2.42;;;;;;;;;;5009990;28;20478;-85
2021/11/08 01:08:40;;;;;;;7.07;2.40;;;;;;;;;;5015058;28;20084;-85
2021/11/08 01:11:07;;;;;;;8.57;2.42;;;;;;;;;;5030077;28;20464;-83
2021/11/08 01:13:33;;;;;;;9.40;2.53;;;;;;;;;;5014231;28;20548;-83
2021/11/08 01:15:59;;;;;;;10.52;2.60;;;;;;;;;;5013511;28;20029;-85
2021/11/08 01:18:25;;;;;;;9.02;2.70;;;;;;;;;;5018947;28;20078;-85
2021/11/08 01:20:50;;;;;;;7.10;2.35;;;;;;;;;;5014016;28;20108;-83
2021/11/08 01:23:18;;;;;;;8.20;2.58;;;;;;;;;;5011272;28;20029;-83
2021/11/08 01:25:56;;;;;;;7.82;2.40;;;;;;;;;;5020818;28;20082;-85
2021/11/08 01:28:30;;;;;;;8.15;2.30;;;;;;;;;;5017663;28;20527;-83
2021/11/08 01:30:55;;;;;;;13.50;2.65;;;;;;;;;;5038062;28;20029;-82
2021/11/08 01:33:22;;;;;;;9.05;2.58;;;;;;;;;;5011897;28;20028;-83
2021/11/08 01:36:00;;;;;;;8.80;2.47;;;;;;;;;;5008848;28;20029;-84
2021/11/08 01:38:27;;;;;;;13.27;2.83;;;;;;;;;;5013767;28;20041;-84
2021/11/08 01:40:53;;;;;;;9.30;1.95;;;;;;;;;;5029451;28;20022;-85
2021/11/08 01:43:23;;;;;;;9.73;2.33;;;;;;;;;;5021760;28;20029;-83
2021/11/08 01:45:48;;;;;;;11.18;3.20;;;;;;;;;;5019385;28;20071;-85
2021/11/08 01:48:14;;;;;;;9.15;1.95;;;;;;;;;;5027759;28;20025;-85
2021/11/08 01:50:41;;;;;;;7.18;1.90;;;;;;;;;;5018085;28;20060;-85
2021/11/08 01:53:06;;;;;;;10.80;2.30;;;;;;;;;;5014181;28;20021;-85
2021/11/08 01:55:33;;;;;;;9.60;2.15;;;;;;;;;;5015206;28;20538;-85
2021/11/08 01:57:59;;;;;;;9.13;1.90;;;;;;;;;;5038733;28;20034;-85
2021/11/08 02:00:27;;;;;;;6.53;2.08;;;;;;;;;;5015315;28;20075;-84
2021/11/08 02:02:52;;;;;;;8.02;2.10;;;;;;;;;;5008078;28;20037;-83
2021/11/08 02:05:18;;;;;;;7.22;1.98;;;;;;;;;;5011703;28;20384;-84
2021/11/08 02:07:46;;;;;;;8.05;2.40;;;;;;;;;;5022242;28;20125;-85
2021/11/08 02:10:15;;;;;;;9.15;2.15;;;;;;;;;;5016988;28;20083;-83
2021/11/08 02:12:42;;;;;;;10.25;2.28;;;;;;;;;;5035620;28;20096;-83
2021/11/08 02:15:12;;;;;;;7.97;2.13;;;;;;;;;;5019027;28;20500;-85
2021/11/08 02:17:40;;;;;;;9.43;2.85;;;;;;;;;;5011688;28;20939;-82
2021/11/08 02:20:19;;;;;;;10.93;2.30;;;;;;;;;;5017309;28;20021;-84
2021/11/08 02:22:45;;;;;;;13.07;2.50;;;;;;;;;;5011065;28;20025;-83
2021/11/08 02:25:12;;;;;;;11.93;2.40;;;;;;;;;;5016194;28;20037;-84
2021/11/08 02:27:41;;;;;;;8.65;2.38;;;;;;;;;;5014380;28;20026;-85
2021/11/08 02:30:07;;;;;;;11.43;2.55;;;;;;;;;;5020436;28;20491;-83
2021/11/08 02:32:33;;;;;;;14.45;3.10;;;;;;;;;;5038388;28;20025;-83
2021/11/08 02:35:00;;;;;;;8.13;2.40;;;;;;;;;;5016369;28;20025;-82
2021/11/08 02:37:26;;;;;;;10.65;2.20;;;;;;;;;;5015596;28;20488;-84
2021/11/08 02:39:53;;;;;;;10.65;2.60;;;;;;;;;;5017015;28;20104;-83
2021/11/08 02:42:18;;;;;;;6.85;2.40;;;;;;;;;;5011725;28;20180;-84
2021/11/08 02:44:44;;;;;;;10.35;2.72;;;;;;;;;;5012436;28;20108;-85
2021/11/08 02:47:10;;;;;;;9.07;2.30;;;;;;;;;;5016061;28;20107;-83
2021/11/08 02:49:40;;;;;;;11.48;2.78;;;;;;;;;;5016728;28;20032;-84
2021/11/08 02:52:08;;;;;;;9.73;2.50;;;;;;;;;;5030816;28;20021;-84
2021/11/08 02:54:43;;;;;;;11.20;2.63;;;;;;;;;;5019187;28;20022;-84
2021/11/08 02:57:10;;;;;;;12.80;2.60;;;;;;;;;;5016250;28;20032;-84
2021/11/08 02:59:37;;;;;;;8.40;2.47;;;;;;;;;;5013566;28;20416;-83
2021/11/08 03:02:04;;;;;;;7.80;2.50;;;;;;;;;;5028684;28;20029;-83
2021/11/08 03:04:51;;;;;;;10.60;2.50;;;;;;;;;;5037230;28;20021;-84
2021/11/08 03:07:17;;;;;;;9.95;2.50;;;;;;;;;;5029462;28;20149;-84
2021/11/08 03:09:50;;;;;;;7.15;2.33;;;;;;;;;;5023680;28;20476;-84
2021/11/08 03:12:19;;;;;;;8.95;2.60;;;;;;;;;;5032360;28;20072;-83
2021/11/08 03:15:02;;;;;;;10.98;2.80;;;;;;;;;;5028173;28;20034;-83
2021/11/08 03:17:34;;;;;;;;;;;;;;;;;;5018187;28;20036;-85
2021/11/08 03:19:59;;;;;;;11.30;2.40;;;;;;;;;;5028199;28;19913;-83
2021/11/08 03:22:32;;;;;;;10.35;2.80;;;;;;;;;;5038865;28;20492;-84
2021/11/08 03:25:03;;;;;;;11.32;2.90;;;;;;;;;;5019142;28;20052;-83
2021/11/08 03:29:58;;;;;;;15.20;3.05;;;;;;;;;;5027850;28;20485;-84
2021/11/08 03:32:23;;;;;;;9.82;2.58;;;;;;;;;;5012268;28;20022;-84
2021/11/08 03:34:57;;;;;;;7.45;2.80;;;;;;;;;;5018848;28;20082;-84
2021/11/08 03:37:23;;;;;;;8.57;2.45;;;;;;;;;;5014554;28;20428;-84
2021/11/08 03:39:49;;;;;;;13.40;3.28;;;;;;;;;;5013483;28;20025;-84
2021/11/08 03:42:16;;;;;;;8.50;2.60;;;;;;;;;;5016619;28;20537;-84
2021/11/08 03:44:41;;;;;;;11.40;3.03;;;;;;;;;;5017106;28;20546;-85
2021/11/08 03:47:07;;;;;;;13.48;3.25;;;;;;;;;;5015198;28;20026;-83
2021/11/08 03:49:32;;;;;;;9.25;2.95;;;;;;;;;;5013748;28;20025;-83
2021/11/08 03:52:00;;;;;;;11.43;2.78;;;;;;;;;;5010358;28;20021;-83
2021/11/08 03:54:25;;;;;;;9.48;2.65;;;;;;;;;;5016333;28;20104;-83
2021/11/08 03:56:50;;;;;;;13.55;3.35;;;;;;;;;;5012250;28;20523;-83
2021/11/08 03:59:16;;;;;;;10.35;2.60;;;;;;;;;;5033349;28;20461;-83
2021/11/08 04:01:41;;;;;;;12.10;2.80;;;;;;;;;;5009038;28;20029;-83
2021/11/08 04:04:07;;;;;;;12.35;3.38;;;;;;;;;;5015198;28;20026;-83
2021/11/08 04:06:38;;;;;;;10.98;3.15;;;;;;;;;;5014122;28;20040;-84
2021/11/08 04:09:04;;;;;;;9.35;2.83;;;;;;;;;;5016275;28;20052;-84
2021/11/08 04:11:29;;;;;;;10.35;2.75;;;;;;;;;;5014892;28;20437;-84
2021/11/08 04:13:57;;;;;;;7.97;2.90;;;;;;;;;;5020423;28;20083;-85
2021/11/08 04:16:24;;;;;;;12.48;3.00;;;;;;;;;;5032164;28;20180;-83
2021/11/08 04:18:52;;;;;;;12.20;2.80;;;;;;;;;;5026967;28;20049;-83
2021/11/08 04:21:18;;;;;;;12.38;2.67;;;;;;;;;;5012095;28;20064;-84
2021/11/08 04:23:44;;;;;;;11.70;2.90;;;;;;;;;;5014341;28;20052;-83
2021/11/08 04:26:14;;;;;;;9.88;2.90;;;;;;;;;;5016487;28;20029;-83
2021/11/08 04:28:39;;;;;;;12.52;2.80;;;;;;;;;;5018774;28;20025;-84
2021/11/08 04:31:05;;;;;;;8.82;2.45;;;;;;;;;;5030475;28;20379;-84
2021/11/08 04:49:52;;;;;;;10.85;2.95;;;;;;;;;;4992420;28;20113;-83
2021/11/08 04:52:44;;;;;;;11.75;3.78;;;;;;;;;;5013456;28;20542;-84
2021/11/08 05:32:19;;;;;;;10.25;3.50;;;;;;;;;;5026629;28;20530;-85
2021/11/08 05:34:45;;;;;;;13.82;3.25;;;;;;;;;;5034222;28;20083;-85
2021/11/08 05:37:10;;;;;;;10.77;3.15;;;;;;;;;;5017648;28;20021;-83
2021/11/08 05:39:38;;;;;;;10.55;3.55;;;;;;;;;;5017275;28;20029;-84
2021/11/08 05:42:04;;;;;;;12.20;3.38;;;;;;;;;;5016996;28;20159;-84
2021/11/08 05:44:31;;;;;;;9.20;3.33;;;;;;;;;;5017730;28;20115;-84
2021/11/08 05:46:57;;;;;;;9.80;3.17;;;;;;;;;;5017822;28;22545;-83
2021/11/08 05:49:22;;;;;;;14.05;3.83;;;;;;;;;;5017137;28;20025;-85
2021/11/08 05:51:48;;;;;;;12.45;3.88;;;;;;;;;;5015453;28;20053;-84
2021/11/08 05:54:13;;;;;;;18.80;4.03;;;;;;;;;;5016372;28;20366;-84
2021/11/08 05:59:51;;;;;;;10.35;3.58;;;;;;;;;;5030908;28;20385;-85
2021/11/08 06:51:50;;;;;;;13.50;3.75;;;;;;;;;;4984369;28;20124;-85
2021/11/08 06:54:18;;;;;;;13.98;4.38;;;;;;;;;;5006504;28;20037;-83
2021/11/08 06:56:52;;;;;;;11.55;4.07;;;;;;;;;;5013692;28;20026;-84
2021/11/08 06:59:19;;;;;;;11.85;4.05;;;;;;;;;;5016402;28;20029;-84
2021/11/08 07:01:47;;;;;;;13.30;4.47;;;;;;;;;;5031387;28;20017;-84
2021/11/08 07:04:13;;;;;;;12.80;4.45;;;;;;;;;;5011710;28;20043;-83
2021/11/08 07:06:38;;;;;;;11.55;4.18;;;;;;;;;;5018839;28;20412;-85
2021/11/08 07:09:04;;;;;;;14.05;4.43;;;;;;;;;;5016241;28;20829;-84
2021/11/08 07:11:30;;;;;;;10.05;3.90;;;;;;;;;;5003616;28;20036;-84
2021/11/08 07:13:55;;;;;;;10.88;3.92;;;;;;;;;;5005355;28;20481;-83
2021/11/08 07:16:21;;;;;;;13.48;4.47;;;;;;;;;;5006162;28;20031;-83
2021/11/08 07:18:46;;;;;;;13.55;4.05;;;;;;;;;;5011267;28;20032;-84
2021/11/08 07:21:11;;;;;;;13.65;4.70;;;;;;;;;;5018236;28;20163;-85
2021/11/08 07:23:37;;;;;;;13.25;3.95;;;;;;;;;;5012487;28;20036;-84
2021/11/08 07:26:02;;;;;;;17.65;4.57;;;;;;;;;;5014401;28;20040;-83
2021/11/08 07:28:28;;;;;;;15.27;4.00;;;;;;;;;;5009879;28;20032;-83
2021/11/08 07:30:53;;;;;;;15.15;6.07;;;;;;;;;;5028498;28;20370;-84
2021/11/08 07:33:19;;;;;;;12.65;4.47;;;;;;;;;;5006471;28;21810;-84
2021/11/08 07:35:44;;;;;;;12.20;4.55;;;;;;;;;;5006797;28;20392;-82
2021/11/08 07:38:10;;;;;;;13.63;4.28;;;;;;;;;;5016524;28;20117;-83
2021/11/08 07:40:36;;;;;;;13.43;4.35;;;;;;;;;;5013656;28;20033;-82
2021/11/08 07:43:02;;;;;;;12.48;4.60;;;;;;;;;;5016000;28;20030;-82
2021/11/08 07:45:27;;;;;;;14.57;4.20;;;;;;;;;;5016343;28;20040;-84
2021/11/08 07:47:54;;;;;;;14.40;4.90;;;;;;;;;;5006161;28;20025;-82
2021/11/08 07:50:22;;;;;;;13.82;4.22;;;;;;;;;;5019926;28;20026;-85
2021/11/08 07:52:48;;;;;;;13.32;4.90;;;;;;;;;;5033189;28;20033;-83
2021/11/08 07:55:13;;;;;;;14.48;4.72;;;;;;;;;;5024049;28;20087;-84
2021/11/08 07:57:39;;;;;;;11.77;4.70;;;;;;;;;;5015738;28;20025;-82
2021/11/08 08:00:06;;;;;;;13.60;4.68;;;;;;;;;;5031041;28;20473;-85
2021/11/08 08:02:32;;;;;;;16.35;5.10;;;;;;;;;;5009145;28;20464;-82
2021/11/08 08:04:58;;;;;;;14.80;5.18;;;;;;;;;;5008320;28;20040;-84
2021/11/08 08:07:23;;;;;;;18.10;5.00;;;;;;;;;;5016648;28;20080;-85
2021/11/08 08:09:48;;;;;;;13.80;4.68;;;;;;;;;;5016099;28;20396;-84
2021/11/08 08:12:14;;;;;;;12.80;4.45;;;;;;;;;;5033811;28;20060;-83
2021/11/08 08:14:39;;;;;;;17.15;4.60;;;;;;;;;;5033865;28;20079;-82
2021/11/08 08:17:04;;;;;;;11.00;4.35;;;;;;;;;;5015854;28;20009;-85
2021/11/08 08:19:31;;;;;;;10.60;4.70;;;;;;;;;;5025282;28;20028;-84
2021/11/08 08:21:57;;;;;;;12.25;3.70;;;;;;;;;;5015971;28;20052;-83
2021/11/08 08:24:22;;;;;;;13.52;4.63;;;;;;;;;;5033570;28;20017;-82
2021/11/08 08:26:48;;;;;;;15.25;4.88;;;;;;;;;;5015744;28;20082;-84
2021/11/08 08:29:14;;;;;;;15.02;5.47;;;;;;;;;;5013475;28;20021;-82
2021/11/08 08:31:44;;;;;;;13.43;4.00;;;;;;;;;;5026835;28;20507;-84
2021/11/08 08:34:10;;;;;;;14.82;4.95;;;;;;;;;;5019396;28;20468;-81
2021/11/08 08:36:37;;;;;;;17.70;5.32;;;;;;;;;;5043581;28;20096;-84
2021/11/08 08:39:04;;;;;;;14.63;5.03;;;;;;;;;;5013969;28;20030;-85
2021/11/08 08:41:29;;;;;;;14.82;4.38;;;;;;;;;;5030627;28;20022;-84
2021/11/08 08:43:55;;;;;;;17.27;5.03;;;;;;;;;;5012926;28;20029;-84
2021/11/08 08:46:20;;;;;;;21.30;5.22;;;;;;;;;;5009563;28;20095;-83
2021/11/08 08:48:48;;;;;;;20.73;5.15;;;;;;;;;;5022428;28;20045;-84
2021/11/08 08:51:13;;;;;;;12.10;4.00;;;;;;;;;;5015494;28;20028;-84
2021/11/08 08:53:39;;;;;;;18.05;4.45;;;;;;;;;;5015214;28;20029;-84
2021/11/08 08:56:04;;;;;;;21.20;5.32;;;;;;;;;;5015591;28;20029;-84
2021/11/08 08:58:31;;;;;;;15.55;5.25;;;;;;;;;;5015263;28;20072;-84
2021/11/08 09:00:57;;;;;;;15.32;4.80;;;;;;;;;;5015514;28;20044;-84
2021/11/08 09:03:23;;;;;;;16.52;4.93;;;;;;;;;;5014474;28;20017;-82
2021/11/08 09:05:49;;;;;;;14.63;4.35;;;;;;;;;;5016344;28;20022;-82
2021/11/08 09:08:15;;;;;;;13.63;4.40;;;;;;;;;;5017891;28;20049;-83
2021/11/08 09:10:41;;;;;;;13.23;4.10;;;;;;;;;;5017740;28;20029;-82
2021/11/08 09:13:08;;;;;;;14.90;4.25;;;;;;;;;;5014905;28;20021;-82
2021/11/08 09:15:35;;;;;;;15.55;4.38;;;;;;;;;;5014672;28;20025;-83
2021/11/08 09:18:01;;;;;;;12.75;3.83;;;;;;;;;;5014209;28;20028;-84
2021/11/08 09:20:28;;;;;;;14.00;4.45;;;;;;;;;;5027449;28;20112;-83
2021/11/08 09:22:54;;;;;;;19.70;4.75;;;;;;;;;;5026124;28;20084;-83
2021/11/08 09:25:21;;;;;;;18.60;4.65;;;;;;;;;;5033464;28;20112;-83
2021/11/08 09:27:50;;;;;;;15.50;4.82;;;;;;;;;;5020516;28;20033;-83
2021/11/08 09:30:17;;;;;;;21.05;4.80;;;;;;;;;;5025530;28;20473;-83
2021/11/08 09:32:43;;;;;;;17.83;5.28;;;;;;;;;;5027310;28;20024;-83
2021/11/08 09:35:09;;;;;;;17.88;5.78;;;;;;;;;;5037229;28;20035;-84
2021/11/08 09:37:43;;;;;;;18.52;5.22;;;;;;;;;;5014725;28;20030;-84
2021/11/08 09:40:10;;;;;;;18.60;5.40;;;;;;;;;;5014832;28;20396;-83
2021/11/08 09:42:36;;;;;;;19.15;5.53;;;;;;;;;;5010437;28;20036;-83
2021/11/08 09:45:05;;;;;;;16.33;5.30;;;;;;;;;;5020787;28;20468;-82
2021/11/08 09:47:32;;;;;;;15.70;4.95;;;;;;;;;;5013029;28;20021;-82
2021/11/08 09:50:02;;;;;;;19.13;5.80;;;;;;;;;;5014329;28;20048;-83
2021/11/08 09:52:29;;;;;;;16.63;5.40;;;;;;;;;;5028730;28;20041;-84
2021/11/08 09:54:55;;;;;;;15.50;5.32;;;;;;;;;;5010119;28;20025;-83
2021/11/08 09:57:24;;;;;;;20.55;5.15;;;;;;;;;;5013097;28;20013;-84
2021/11/08 09:59:51;;;;;;;19.50;5.95;;;;;;;;;;5032574;28;20017;-83
2021/11/08 10:02:17;;;;;;;11.85;4.40;;;;;;;;;;5011350;28;20046;-84
2021/11/08 10:04:44;;;;;;;19.73;5.10;;;;;;;;;;5006856;28;20021;-84
2021/11/08 10:07:11;;;;;;;17.80;6.20;;;;;;;;;;5034291;28;20045;-84
2021/11/08 10:09:37;;;;;;;16.58;5.47;;;;;;;;;;5020229;28;20029;-84
2021/11/08 10:12:07;;;;;;;17.42;5.13;;;;;;;;;;5015579;28;20030;-84
2021/11/08 10:14:33;;;;;;;18.77;5.25;;;;;;;;;;5014679;28;20021;-84
2021/11/08 10:17:01;;;;;;;14.45;4.85;;;;;;;;;;5014506;28;20037;-84
2021/11/08 10:19:27;;;;;;;17.08;5.70;;;;;;;;;;5035377;28;20745;-83
2021/11/08 10:21:55;;;;;;;16.20;5.53;;;;;;;;;;5040277;28;20049;-84
2021/11/08 10:24:27;;;;;;;16.17;4.47;;;;;;;;;;5036725;28;20025;-85
2021/11/08 10:26:58;;;;;;;11.75;4.88;;;;;;;;;;5029876;28;20389;-83
2021/11/08 10:29:25;;;;;;;16.27;5.35;;;;;;;;;;5017993;28;20053;-84
2021/11/08 10:31:54;;;;;;;17.77;5.32;;;;;;;;;;5018103;28;20116;-85
2021/11/08 10:34:22;;;;;;;17.25;4.90;;;;;;;;;;5025845;28;20539;-84
2021/11/08 10:37:05;;;;;;;21.50;5.40;;;;;;;;;;5018972;28;20021;-83
2021/11/08 10:39:35;;;;;;;20.27;5.63;;;;;;;;;;5031889;28;20029;-83
2021/11/08 10:42:01;;;;;;;14.90;4.63;;;;;;;;;;5012212;28;20067;-84
2021/11/08 10:44:29;;;;;;;18.02;4.78;;;;;;;;;;5022953;28;20069;-83
2021/11/08 10:47:04;;;;;;;14.80;5.25;;;;;;;;;;5020971;28;20018;-83
2021/11/08 10:49:36;;;;;;;18.52;4.80;;;;;;;;;;5020176;28;20029;-84
2021/11/08 10:52:02;;;;;;;16.88;4.85;;;;;;;;;;5017341;28;20033;-84
2021/11/08 10:54:34;;;;;;;21.35;4.85;;;;;;;;;;5027306;28;20056;-83
2021/11/08 10:57:10;;;;;;;19.02;5.57;;;;;;;;;;5021494;28;20028;-83
2021/11/08 10:59:42;;;;;;;17.95;5.03;;;;;;;;;;5026235;28;20029;-84
2021/11/08 11:02:11;;;;;;;17.65;4.82;;;;;;;;;;5016674;28;20404;-83
2021/11/08 11:04:45;;;;;;;17.20;4.78;;;;;;;;;;5037161;28;20049;-84
2021/11/08 11:07:12;;;;;;;17.00;5.05;;;;;;;;;;5027720;28;20111;-81
2021/11/08 11:09:38;;;;;;;22.58;5.60;;;;;;;;;;5000401;28;20040;-83
2021/11/08 11:12:16;;;;;;;17.23;5.43;;;;;;;;;;5028097;28;20029;-81
2021/11/08 11:14:48;;;;;;;21.95;5.55;;;;;;;;;;5007284;28;20705;-83
2021/11/08 11:17:29;;;;;;;15.80;5.10;;;;;;;;;;4997746;28;20469;-81
2021/11/08 11:20:19;;;;;;;18.30;5.47;;;;;;;;;;5004552;28;20030;-83
2021/11/08 11:22:59;;;;;;;20.80;5.28;;;;;;;;;;5000578;28;20038;-81
2021/11/08 11:25:29;;;;;;;15.93;4.82;;;;;;;;;;4988546;28;20048;-83
2021/11/08 11:27:54;;;;;;;18.02;4.95;;;;;;;;;;5020699;28;20025;-83
2021/11/08 11:30:33;;;;;;;17.95;5.50;;;;;;;;;;5001019;28;20030;-81
2021/11/08 11:33:01;;;;;;;18.80;5.45;;;;;;;;;;4984382;28;20030;-83
2021/11/08 11:35:36;;;;;;;21.15;5.32;;;;;;;;;;5013192;28;20021;-83
2021/11/08 11:38:40;;;;;;;;;;;;;;;;;;;;;
2021/11/08 11:41:09;;;;;;;15.13;4.18;;;;;;;;;;5011545;28;20030;-83
2021/11/08 11:43:50;;;;;;;15.77;4.30;;;;;;;;;;4992348;28;20036;-83
2021/11/08 11:46:30;;;;;;;18.33;4.55;;;;;;;;;;4996455;28;20489;-83
2021/11/08 11:48:57;;;;;;;18.42;3.95;;;;;;;;;;4986094;28;20029;-83
2021/11/08 11:51:25;;;;;;;15.90;4.57;;;;;;;;;;5015337;28;20492;-84
2021/11/08 11:53:57;;;;;;;17.50;4.65;;;;;;;;;;5014205;28;20407;-83
2021/11/08 11:56:24;;;;;;;17.35;4.75;;;;;;;;;;4986733;28;20073;-84
2021/11/08 11:58:49;;;;;;;21.15;4.75;;;;;;;;;;5027677;28;20423;-83
2021/11/08 12:01:19;;;;;;;16.83;4.00;;;;;;;;;;5016015;28;20088;-83
2021/11/08 12:03:46;;;;;;;18.33;4.25;;;;;;;;;;5005945;28;20026;-84
2021/11/08 12:06:15;;;;;;;21.40;4.40;;;;;;;;;;5005527;28;20120;-84
2021/11/08 12:08:42;;;;;;;15.75;4.00;;;;;;;;;;5012496;28;20032;-85
2021/11/08 12:11:09;;;;;;;16.02;3.85;;;;;;;;;;4996323;28;20025;-83
2021/11/08 12:13:40;;;;;;;14.50;3.95;;;;;;;;;;5014340;28;20501;-84
2021/11/08 12:16:16;;;;;;;16.20;4.63;;;;;;;;;;5010788;28;20017;-81
2021/11/08 12:18:42;;;;;;;16.20;4.00;;;;;;;;;;5003898;28;20030;-84
2021/11/08 12:21:20;;;;;;;18.02;3.85;;;;;;;;;;4992162;28;20052;-81
2021/11/08 12:23:46;;;;;;;15.00;3.55;;;;;;;;;;4998176;28;20030;-83
2021/11/08 12:26:32;;;;;;;15.85;4.22;;;;;;;;;;5013183;28;20521;-83
2021/11/08 12:29:10;;;;;;;12.48;3.70;;;;;;;;;;4983440;28;20034;-83
2021/11/08 12:31:36;;;;;;;12.38;3.85;;;;;;;;;;4989436;28;20428;-81
2021/11/08 12:34:12;;;;;;;14.82;4.18;;;;;;;;;;5003123;28;20029;-81
2021/11/08 12:36:38;;;;;;;18.92;4.82;;;;;;;;;;4995762;28;20025;-84
2021/11/08 12:39:10;;;;;;;18.58;4.15;;;;;;;;;;5012226;28;20033;-81
2021/11/08 12:41:47;;;;;;;16.50;4.45;;;;;;;;;;4996137;28;20124;-81
2021/11/08 12:44:16;;;;;;;25.73;4.82;;;;;;;;;;4994088;28;20109;-83
2021/11/08 12:46:51;;;;;;;17.52;4.10;;;;;;;;;;5010479;28;20029;-83
2021/11/08 12:49:35;;;;;;;18.50;3.72;;;;;;;;;;4998689;28;20033;-83
2021/11/08 12:52:20;;;;;;;16.15;3.40;;;;;;;;;;4993579;28;20026;-83
2021/11/08 12:54:55;;;;;;;15.18;3.65;;;;;;;;;;4988180;28;20026;-85
2021/11/08 12:57:23;;;;;;;14.93;3.55;;;;;;;;;;5013112;28;20018;-83
2021/11/08 12:59:56;;;;;;;16.35;3.50;;;;;;;;;;5004607;28;20697;-81
2021/11/08 13:02:30;;;;;;;14.05;3.67;;;;;;;;;;4982830;28;20029;-83
2021/11/08 13:04:58;;;;;;;14.82;3.58;;;;;;;;;;5012921;28;20109;-84
2021/11/08 13:07:35;;;;;;;18.40;4.00;;;;;;;;;;5034353;28;20488;-83
2021/11/08 13:10:01;;;;;;;16.58;3.88;;;;;;;;;;5035042;28;20471;-81
2021/11/08 13:12:33;;;;;;;14.25;3.38;;;;;;;;;;5053033;28;20086;-81
2021/11/08 13:15:07;;;;;;;14.73;3.67;;;;;;;;;;5033848;28;20032;-84
2021/11/08 13:18:06;;;;;;;18.23;4.03;;;;;;;;;;5052960;28;20445;-83
2021/11/08 13:20:37;;;;;;;16.20;4.32;;;;;;;;;;5042714;28;20135;-81
2021/11/08 13:23:10;;;;;;;17.23;5.10;;;;;;;;;;5034850;28;20024;-83
2021/11/08 13:25:38;;;;;;;;;;;;;;;;;;5031820;28;20028;-83
2021/11/08 13:28:12;;;;;;;16.30;3.47;;;;;;;;;;5048448;28;19909;-85
2021/11/08 13:30:44;;;;;;;19.98;3.78;;;;;;;;;;5046044;28;20055;-83
2021/11/08 13:33:12;;;;;;;14.77;3.67;;;;;;;;;;5046192;28;20052;-81
2021/11/08 13:35:39;;;;;;;20.48;4.00;;;;;;;;;;5024051;28;20017;-83
2021/11/08 13:38:28;;;;;;;13.70;3.42;;;;;;;;;;5048925;28;20028;-83
2021/11/08 13:41:05;;;;;;;16.90;4.22;;;;;;;;;;5032561;28;20036;-84
2021/11/08 13:43:42;;;;;;;17.08;4.40;;;;;;;;;;5049528;28;20021;-81
2021/11/08 13:46:20;;;;;;;17.10;4.88;;;;;;;;;;5039700;28;20033;-80
2021/11/08 13:48:49;;;;;;;14.15;3.75;;;;;;;;;;5052447;28;20429;-81
2021/11/08 13:51:24;;;;;;;12.98;3.25;;;;;;;;;;5036487;28;20032;-84
2021/11/08 13:54:05;;;;;;;18.50;3.83;;;;;;;;;;5037016;28;20029;-81
2021/11/08 13:56:36;;;;;;;17.35;3.85;;;;;;;;;;5054829;28;20443;-82
2021/11/08 13:59:14;;;;;;;15.02;3.30;;;;;;;;;;5056848;28;20029;-84
2021/11/08 14:01:43;;;;;;;17.85;4.15;;;;;;;;;;5037942;28;20052;-84
2021/11/08 14:04:18;;;;;;;17.73;4.30;;;;;;;;;;5052883;28;20033;-81
2021/11/08 14:06:53;;;;;;;14.85;3.80;;;;;;;;;;5057687;28;20115;-81
2021/11/08 14:09:20;;;;;;;12.45;3.58;;;;;;;;;;5054902;28;20057;-84
2021/11/08 14:11:55;;;;;;;13.07;3.67;;;;;;;;;;5061805;28;20063;-84
2021/11/08 14:14:23;;;;;;;16.75;3.58;;;;;;;;;;5042953;28;20025;-83
2021/11/08 14:16:51;;;;;;;18.70;3.17;;;;;;;;;;5030237;28;20508;-84
2021/11/08 14:19:18;;;;;;;14.57;3.53;;;;;;;;;;5026442;28;20487;-84
2021/11/08 14:22:02;;;;;;;16.80;3.45;;;;;;;;;;5042157;28;20115;-82
2021/11/08 14:24:32;;;;;;;16.33;3.90;;;;;;;;;;5037239;28;20047;-82
2021/11/08 14:26:57;;;;;;;14.63;3.35;;;;;;;;;;5035106;28;20436;-84
2021/11/08 14:29:24;;;;;;;14.60;3.80;;;;;;;;;;5045458;28;20028;-82
2021/11/08 14:32:21;;;;;;;;;;;;;;;;;;;;;
2021/11/08 14:35:02;;;;;;;15.07;4.00;;;;;;;;;;5055942;28;20379;-84
2021/11/08 14:38:31;;;;;;;12.63;3.97;;;;;;;;;;4907981;28;20108;-84
2021/11/08 14:40:46;;;;;;;15.38;3.30;;;;;;;;;;4225929;28;20725;-82
2021/11/08 14:43:16;;;;;;;15.82;3.55;;;;;;;;;;4537995;28;20037;-84
2021/11/08 14:45:52;;;;;;;16.00;3.40;;;;;;;;;;5030123;28;20032;-84
2021/11/08 14:48:22;;;;;;;18.27;3.65;;;;;;;;;;5027570;28;20029;-83
2021/11/08 14:50:50;;;;;;;13.45;3.50;;;;;;;;;;5039918;28;20993;-83
2021/11/08 14:53:18;;;;;;;18.58;3.85;;;;;;;;;;5031224;28;20086;-83
2021/11/08 14:55:44;;;;;;;16.13;3.65;;;;;;;;;;5038736;28;20036;-81
2021/11/08 14:58:19;;;;;;;10.05;3.00;;;;;;;;;;5030770;28;20033;-83
2021/11/08 15:00:47;;;;;;;15.02;3.50;;;;;;;;;;5030573;28;20020;-84
2021/11/08 15:03:20;;;;;;;24.88;4.85;;;;;;;;;;5028524;28;20031;-82
2021/11/08 15:05:47;;;;;;;16.43;4.00;;;;;;;;;;5030042;28;20399;-82
2021/11/08 15:08:14;;;;;;;13.73;3.92;;;;;;;;;;5029443;28;20093;-83
2021/11/08 15:10:49;;;;;;;15.70;3.55;;;;;;;;;;5047473;28;20033;-84
2021/11/08 15:13:18;;;;;;;12.20;3.22;;;;;;;;;;5029857;28;20036;-84
2021/11/08 15:15:49;;;;;;;22.90;3.88;;;;;;;;;;5047487;28;20480;-84
2021/11/08 15:18:16;;;;;;;14.55;3.20;;;;;;;;;;5028957;28;20040;-84
2021/11/08 15:20:46;;;;;;;14.02;2.85;;;;;;;;;;5044522;28;20020;-82
2021/11/08 15:23:20;;;;;;;15.02;3.33;;;;;;;;;;5029693;28;20028;-83
2021/11/08 15:25:51;;;;;;;14.40;3.03;;;;;;;;;;5025887;28;20029;-84
2021/11/08 15:28:24;;;;;;;19.20;3.50;;;;;;;;;;5028392;28;20041;-83
2021/11/08 15:31:05;;;;;;;10.30;3.38;;;;;;;;;;5030420;28;20107;-84
2021/11/08 15:33:54;;;;;;;14.43;3.38;;;;;;;;;;5029571;28;20029;-83
2021/11/08 15:36:23;;;;;;;11.75;3.30;;;;;;;;;;5028963;28;20016;-83
2021/11/08 15:38:50;;;;;;;10.20;3.42;;;;;;;;;;5029471;28;20039;-83
2021/11/08 15:41:16;;;;;;;13.43;3.90;;;;;;;;;;5042976;28;20031;-83
2021/11/08 15:43:43;;;;;;;15.60;3.95;;;;;;;;;;5029056;28;20119;-84
2021/11/08 15:46:15;;;;;;;14.02;3.70;;;;;;;;;;5028606;28;20033;-84
2021/11/08 15:48:49;;;;;;;13.80;3.58;;;;;;;;;;5025955;28;20036;-85
2021/11/08 15:51:29;;;;;;;12.25;4.07;;;;;;;;;;5028326;28;20036;-84
2021/11/08 15:53:57;;;;;;;14.88;3.72;;;;;;;;;;5025219;28;20047;-84
2021/11/08 15:56:25;;;;;;;12.35;3.58;;;;;;;;;;5028505;28;20024;-83
2021/11/08 15:58:52;;;;;;;12.68;3.15;;;;;;;;;;5029078;28;20926;-82
2021/11/08 16:01:17;;;;;;;12.77;3.33;;;;;;;;;;5030920;28;20056;-82
2021/11/08 16:03:43;;;;;;;13.07;4.20;;;;;;;;;;5028633;28;20099;-83
2021/11/08 16:06:09;;;;;;;10.63;3.17;;;;;;;;;;5027075;28;21285;-83
2021/11/08 16:08:35;;;;;;;19.02;3.40;;;;;;;;;;5044830;28;20040;-84
2021/11/08 16:11:01;;;;;;;16.30;3.83;;;;;;;;;;5028697;28;20036;-83
2021/11/08 16:13:26;;;;;;;13.20;3.72;;;;;;;;;;5028587;28;20036;-82
2021/11/08 16:15:54;;;;;;;11.18;3.42;;;;;;;;;;5045922;28;20048;-83
2021/11/08 16:18:20;;;;;;;6.18;2.22;;;;;;;;;;5045776;28;20032;-83
2021/11/08 16:20:50;;;;;;;10.13;2.58;;;;;;;;;;5028406;28;20033;-84
2021/11/08 16:23:17;;;;;;;8.73;2.58;;;;;;;;;;5028445;28;20032;-83
2021/11/08 16:25:44;;;;;;;7.70;2.47;;;;;;;;;;5027718;28;20051;-84
2021/11/08 16:28:10;;;;;;;9.38;2.75;;;;;;;;;;5025633;28;20032;-83
2021/11/08 16:30:39;;;;;;;15.38;5.10;;;;;;;;;;5028829;28;20111;-84
2021/11/08 16:33:21;;;;;;;14.57;4.88;;;;;;;;;;5035029;28;20051;-83
2021/11/08 16:35:47;;;;;;;13.65;4.63;;;;;;;;;;5028647;28;20037;-83
2021/11/08 16:38:50;;;;;;;12.30;4.70;;;;;;;;;;5027948;28;20059;-84